createdAt,value
2022-07-31T00:01:00.502Z,22.70
2022-07-31T00:05:03.213Z,22.40
2022-07-31T00:09:04.969Z,22.30
2022-07-31T00:13:06.809Z,22.60
2022-07-31T00:17:08.575Z,22.60
2022-07-31T00:21:10.755Z,22.20
2022-07-31T00:25:14.423Z,22.00
2022-07-31T00:29:16.314Z,22.10
2022-07-31T00:33:18.119Z,21.90
2022-07-31T00:37:19.850Z,22.10
2022-07-31T00:41:21.610Z,21.90
2022-07-31T00:45:29.214Z,21.50
2022-07-31T00:49:37.840Z,21.60
2022-07-31T00:53:39.866Z,21.90
2022-07-31T00:57:41.662Z,22.10
2022-07-31T01:01:43.373Z,22.30
2022-07-31T01:05:45.109Z,22.40
2022-07-31T01:09:48.585Z,22.40
2022-07-31T01:14:04.780Z,22.10
2022-07-31T01:18:10.551Z,22.20
2022-07-31T01:22:35.749Z,21.50
2022-07-31T01:26:51.955Z,21.20
2022-07-31T01:31:26.108Z,20.50
2022-07-31T01:35:36.334Z,20.40
2022-07-31T01:39:41.527Z,20.90
2022-07-31T01:43:47.869Z,21.10
2022-07-31T01:47:50.450Z,20.90
2022-07-31T01:52:02.949Z,21.00
2022-07-31T01:56:07.513Z,20.60
2022-07-31T02:00:34.326Z,20.20
2022-07-31T02:04:33.829Z,19.60
2022-07-31T02:08:36.835Z,19.30
2022-07-31T02:12:40.146Z,19.40
2022-07-31T02:16:42.146Z,19.90
2022-07-31T02:20:45.657Z,20.00
2022-07-31T02:24:47.439Z,20.20
2022-07-31T02:28:49.588Z,19.60
2022-07-31T02:32:52.029Z,20.20
2022-07-31T02:36:54.801Z,20.70
2022-07-31T02:41:01.672Z,20.40
2022-07-31T02:45:03.898Z,20.70
2022-07-31T02:49:06.604Z,20.60
2022-07-31T02:53:08.649Z,20.50
2022-07-31T02:57:10.798Z,20.60
2022-07-31T03:01:14.397Z,20.70
2022-07-31T03:05:16.880Z,20.90
2022-07-31T03:09:18.883Z,20.40
2022-07-31T03:13:24.354Z,20.70
2022-07-31T03:17:38.233Z,21.10
2022-07-31T03:21:43.479Z,20.90
2022-07-31T03:25:45.506Z,21.00
2022-07-31T03:29:47.255Z,21.30
2022-07-31T03:33:48.967Z,21.30
2022-07-31T03:37:50.845Z,21.30
2022-07-31T03:41:54.312Z,21.10
2022-07-31T03:45:59.772Z,20.80
2022-07-31T03:50:02.632Z,20.00
2022-07-31T03:54:04.513Z,19.80
2022-07-31T03:58:07.427Z,19.60
2022-07-31T04:02:11.158Z,20.10
2022-07-31T04:06:13.656Z,20.30
2022-07-31T04:10:15.446Z,20.30
2022-07-31T04:14:17.323Z,20.00
2022-07-31T04:18:19.080Z,20.40
2022-07-31T04:22:20.919Z,20.20
2022-07-31T04:26:26.240Z,20.50
2022-07-31T04:30:28.300Z,20.00
2022-07-31T04:34:29.974Z,19.80
2022-07-31T04:38:31.706Z,20.00
2022-07-31T04:42:33.397Z,20.00
2022-07-31T04:46:37.201Z,20.00
2022-07-31T04:50:39.105Z,20.10
2022-07-31T04:54:40.879Z,20.00
2022-07-31T04:58:42.702Z,20.10
2022-07-31T05:02:44.860Z,20.30
2022-07-31T05:06:49.617Z,20.60
2022-07-31T05:11:09.992Z,20.50
2022-07-31T05:15:11.823Z,20.20
2022-07-31T05:19:14.744Z,20.40
2022-07-31T05:23:16.841Z,20.10
2022-07-31T05:27:18.613Z,20.00
2022-07-31T05:31:20.791Z,20.00
2022-07-31T05:35:22.573Z,20.40
2022-07-31T05:39:25.298Z,21.00
2022-07-31T05:43:27.769Z,21.20
2022-07-31T05:47:40.260Z,21.50
2022-07-31T05:51:44.507Z,21.50
2022-07-31T05:55:48.480Z,21.50
2022-07-31T05:59:50.184Z,21.30
2022-07-31T06:03:52.665Z,21.10
2022-07-31T06:07:54.913Z,21.70
2022-07-31T06:11:56.957Z,21.20
2022-07-31T06:15:58.736Z,21.30
2022-07-31T06:20:00.462Z,21.30
2022-07-31T06:24:02.279Z,22.00
2022-07-31T06:28:10.264Z,21.60
2022-07-31T06:32:12.498Z,22.50
2022-07-31T06:36:14.518Z,22.80
2022-07-31T06:40:16.248Z,22.70
2022-07-31T06:44:20.496Z,22.30
2022-07-31T06:48:22.288Z,22.80
2022-07-31T06:52:24.065Z,22.70
2022-07-31T06:56:25.845Z,23.60
2022-07-31T07:00:27.764Z,24.40
2022-07-31T07:04:57.868Z,23.20
2022-07-31T07:08:52.001Z,23.40
2022-07-31T07:12:54.178Z,24.40
2022-07-31T07:16:56.105Z,24.80
2022-07-31T07:20:58.531Z,25.20
2022-07-31T07:25:01.186Z,24.90
2022-07-31T07:29:03.476Z,24.90
2022-07-31T07:33:05.526Z,25.00
2022-07-31T07:37:07.305Z,24.30
2022-07-31T07:41:09.031Z,24.20
2022-07-31T07:45:11.381Z,24.80
2022-07-31T07:49:15.749Z,25.30
2022-07-31T07:53:17.545Z,25.60
2022-07-31T07:57:20.548Z,25.10
2022-07-31T08:01:22.561Z,26.20
2022-07-31T08:05:24.375Z,26.80
2022-07-31T08:09:26.661Z,27.20
2022-07-31T08:13:28.722Z,27.30
2022-07-31T08:17:30.625Z,27.60
2022-07-31T08:21:33.010Z,27.90
2022-07-31T08:25:34.745Z,28.00
2022-07-31T08:29:37.133Z,28.00
2022-07-31T08:33:39.614Z,28.10
2022-07-31T08:37:59.941Z,27.80
2022-07-31T08:42:06.120Z,27.80
2022-07-31T08:46:08.847Z,27.60
2022-07-31T08:50:15.339Z,27.50
2022-07-31T08:54:19.772Z,27.50
2022-07-31T08:58:21.495Z,27.60
2022-07-31T09:02:26.048Z,27.50
2022-07-31T09:06:27.894Z,27.90
2022-07-31T09:10:29.745Z,28.00
2022-07-31T09:14:34.734Z,27.50
2022-07-31T09:18:36.503Z,26.80
2022-07-31T09:22:38.511Z,26.20
2022-07-31T09:26:41.033Z,26.50
2022-07-31T09:30:56.418Z,27.20
2022-07-31T09:35:11.242Z,27.40
2022-07-31T09:39:26.834Z,26.60
2022-07-31T09:43:31.376Z,26.60
2022-07-31T09:47:33.676Z,27.20
2022-07-31T09:51:43.106Z,26.60
2022-07-31T09:55:50.987Z,26.80
2022-07-31T09:59:52.865Z,26.40
2022-07-31T10:03:58.539Z,26.50
2022-07-31T10:08:00.721Z,26.40
2022-07-31T10:12:02.804Z,26.40
2022-07-31T10:16:05.602Z,26.20
2022-07-31T10:20:09.435Z,26.30
2022-07-31T10:24:12.525Z,26.80
2022-07-31T10:28:15.085Z,27.00
2022-07-31T10:32:17.072Z,27.10
2022-07-31T10:36:22.552Z,26.90
2022-07-31T10:40:35.490Z,27.10
2022-07-31T10:44:45.834Z,27.00
2022-07-31T10:48:54.070Z,26.60
2022-07-31T10:53:07.298Z,26.80
2022-07-31T10:57:09.648Z,27.40
2022-07-31T11:01:12.059Z,27.50
2022-07-31T11:05:23.282Z,27.50
2022-07-31T11:09:27.106Z,27.60
2022-07-31T11:13:33.579Z,27.70
2022-07-31T11:18:25.049Z,27.60
2022-07-31T11:22:32.195Z,27.50
2022-07-31T11:26:41.289Z,27.50
2022-07-31T11:30:52.256Z,27.70
2022-07-31T11:34:56.013Z,27.60
2022-07-31T11:38:57.928Z,27.70
2022-07-31T11:48:09.620Z,27.90
2022-07-31T11:51:44.798Z,28.20
2022-07-31T11:55:55.091Z,28.30
2022-07-31T11:59:56.829Z,27.40
2022-07-31T12:04:08.590Z,27.20
2022-07-31T12:08:11.951Z,27.50
2022-07-31T12:12:14.447Z,28.00
2022-07-31T12:16:18.767Z,27.90
2022-07-31T12:20:34.559Z,28.00
2022-07-31T12:24:37.574Z,28.20
2022-07-31T12:28:39.850Z,27.80
2022-07-31T12:32:41.873Z,28.30
2022-07-31T12:36:43.820Z,28.70
2022-07-31T12:40:48.242Z,28.00
2022-07-31T12:44:54.273Z,27.90
2022-07-31T12:48:56.069Z,28.30
2022-07-31T12:53:02.834Z,28.60
2022-07-31T12:57:04.968Z,28.90
2022-07-31T13:01:07.689Z,29.80
2022-07-31T13:05:09.945Z,30.40
2022-07-31T13:09:11.705Z,30.20
2022-07-31T13:13:13.641Z,29.20
2022-07-31T13:17:15.402Z,29.50
2022-07-31T13:21:17.274Z,30.20
2022-07-31T13:25:19.355Z,29.30
2022-07-31T13:29:22.791Z,29.50
2022-07-31T13:33:24.506Z,29.20
2022-07-31T13:37:26.438Z,28.90
2022-07-31T13:41:28.366Z,28.90
2022-07-31T13:45:30.121Z,29.20
2022-07-31T13:49:34.675Z,28.20
2022-07-31T13:53:36.589Z,28.60
2022-07-31T13:57:38.269Z,28.70
2022-07-31T14:02:04.241Z,28.50
2022-07-31T14:06:03.800Z,29.50
2022-07-31T14:10:06.874Z,29.80
2022-07-31T14:14:08.940Z,30.20
2022-07-31T14:18:10.869Z,30.00
2022-07-31T14:22:13.368Z,30.00
2022-07-31T14:26:15.158Z,30.20
2022-07-31T14:30:19.786Z,29.30
2022-07-31T14:34:22.044Z,29.50
2022-07-31T14:38:37.513Z,29.60
2022-07-31T14:42:39.610Z,29.50
2022-07-31T14:46:41.541Z,30.20
2022-07-31T14:50:43.248Z,29.90
2022-07-31T14:54:45.006Z,29.60
2022-07-31T14:58:57.555Z,29.40
2022-07-31T15:03:00.416Z,29.40
2022-07-31T15:07:32.521Z,30.10
2022-07-31T15:11:24.116Z,30.00
2022-07-31T15:15:48.296Z,29.70
2022-07-31T15:19:50.320Z,29.30
2022-07-31T15:23:52.427Z,29.30
2022-07-31T15:27:54.213Z,28.90
2022-07-31T15:31:56.448Z,29.50
2022-07-31T15:35:58.204Z,30.00
2022-07-31T15:40:02.704Z,30.20
2022-07-31T15:44:05.290Z,30.50
2022-07-31T15:48:10.089Z,30.70
2022-07-31T15:52:19.150Z,30.90
2022-07-31T15:56:21.393Z,30.60
2022-07-31T16:00:23.820Z,30.30
2022-07-31T16:04:25.985Z,29.70
2022-07-31T16:08:35.869Z,29.90
2022-07-31T16:12:37.761Z,29.90
2022-07-31T16:16:43.042Z,29.80
2022-07-31T16:20:47.965Z,29.80
2022-07-31T16:24:49.772Z,30.10
2022-07-31T16:28:54.126Z,30.70
2022-07-31T16:32:56.299Z,30.90
2022-07-31T16:36:58.117Z,31.10
2022-07-31T16:40:59.884Z,31.20
2022-07-31T16:45:01.692Z,31.20
2022-07-31T16:49:28.425Z,30.60
2022-07-31T16:54:14.353Z,30.30
2022-07-31T16:57:52.016Z,30.70
2022-07-31T17:01:59.451Z,30.60
2022-07-31T17:06:03.873Z,30.30
2022-07-31T17:10:06.125Z,30.30
2022-07-31T17:14:07.972Z,30.50
2022-07-31T17:18:09.700Z,30.80
2022-07-31T17:22:11.819Z,30.80
2022-07-31T17:26:21.550Z,30.70
2022-07-31T17:30:24.218Z,30.60
2022-07-31T17:34:25.990Z,30.20
2022-07-31T17:38:27.753Z,30.50
2022-07-31T17:42:29.589Z,30.80
2022-07-31T17:46:36.229Z,30.90
2022-07-31T17:50:38.566Z,30.80
2022-07-31T17:54:41.062Z,30.40
2022-07-31T17:58:44.202Z,29.90
2022-07-31T18:02:45.991Z,30.00
2022-07-31T18:06:52.609Z,29.90
2022-07-31T18:10:56.358Z,29.80
2022-07-31T18:14:58.121Z,29.90
2022-07-31T18:19:00.016Z,30.10
2022-07-31T18:23:01.971Z,30.00
2022-07-31T18:27:04.138Z,29.90
2022-07-31T18:31:05.853Z,30.00
2022-07-31T18:35:27.597Z,30.00
2022-07-31T18:39:29.398Z,29.80
2022-07-31T18:43:32.104Z,29.80
2022-07-31T18:47:34.028Z,29.60
2022-07-31T18:51:35.987Z,29.40
2022-07-31T18:55:38.130Z,29.40
2022-07-31T18:59:39.968Z,29.40
2022-07-31T19:03:41.814Z,29.40
2022-07-31T19:07:43.476Z,29.40
2022-07-31T19:11:52.002Z,28.90
2022-07-31T19:15:57.703Z,28.90
2022-07-31T19:20:02.124Z,28.70
2022-07-31T19:24:04.707Z,28.80
2022-07-31T19:28:06.660Z,28.70
2022-07-31T19:32:13.977Z,28.10
2022-07-31T19:36:16.050Z,28.10
2022-07-31T19:40:17.787Z,28.10
2022-07-31T19:44:19.587Z,28.50
2022-07-31T19:48:21.452Z,28.50
2022-07-31T19:52:23.464Z,28.40
2022-07-31T19:56:25.173Z,27.70
2022-07-31T20:00:27.462Z,27.30
2022-07-31T20:04:29.225Z,27.30
2022-07-31T20:08:38.860Z,27.70
2022-07-31T20:12:41.416Z,27.80
2022-07-31T20:16:43.203Z,26.90
2022-07-31T20:20:45.079Z,27.20
2022-07-31T20:24:46.863Z,27.10
2022-07-31T20:28:48.707Z,27.30
2022-07-31T20:32:51.422Z,27.30
2022-07-31T20:36:55.380Z,27.20
2022-07-31T20:40:57.226Z,26.90
2022-07-31T20:44:58.920Z,27.10
2022-07-31T20:49:00.797Z,26.40
2022-07-31T20:53:04.186Z,25.60
2022-07-31T20:57:05.930Z,25.60
2022-07-31T21:01:08.083Z,25.60
2022-07-31T21:05:10.026Z,26.00
2022-07-31T21:09:11.757Z,26.50
2022-07-31T21:13:13.527Z,26.00
2022-07-31T21:17:15.270Z,25.70
2022-07-31T21:21:17.782Z,25.90
2022-07-31T21:25:19.878Z,26.30
2022-07-31T21:29:22.008Z,26.00
2022-07-31T21:33:25.298Z,26.00
2022-07-31T21:37:28.117Z,25.60
2022-07-31T21:41:41.964Z,26.00
2022-07-31T21:45:55.558Z,26.10
2022-07-31T21:50:00.549Z,26.00
2022-07-31T21:54:02.284Z,25.70
2022-07-31T21:58:05.432Z,25.20
2022-07-31T22:02:07.614Z,25.30
2022-07-31T22:06:28.288Z,25.40
2022-07-31T22:10:32.284Z,24.70
2022-07-31T22:14:34.586Z,24.30
2022-07-31T22:18:36.580Z,24.60
2022-07-31T22:22:39.425Z,24.00
2022-07-31T22:27:01.277Z,24.00
2022-07-31T22:31:03.173Z,24.20
2022-07-31T22:35:06.200Z,24.20
2022-07-31T22:39:08.161Z,24.20
2022-07-31T22:44:10.074Z,23.80
2022-07-31T22:47:32.830Z,23.90
2022-07-31T22:51:38.444Z,23.60
2022-07-31T22:55:40.803Z,23.60
2022-07-31T22:59:43.873Z,23.70
2022-07-31T23:03:45.706Z,23.60
2022-07-31T23:07:47.462Z,23.20
2022-07-31T23:11:49.238Z,23.50
2022-07-31T23:15:50.989Z,23.90
2022-07-31T23:19:54.427Z,24.30
2022-07-31T23:23:56.489Z,24.40
2022-07-31T23:27:58.241Z,24.70
2022-07-31T23:31:59.971Z,25.00
2022-07-31T23:36:01.990Z,25.10
2022-07-31T23:40:04.453Z,25.30
2022-07-31T23:44:10.580Z,25.20
2022-07-31T23:48:14.977Z,25.10
2022-07-31T23:52:16.890Z,24.90
2022-07-31T23:56:19.371Z,25.10
